sensor_id;sensor_type;location;lat;lon;timestamp;temperature;humidity
30069;DHT22;16894;49.456;10.644;2022-09-09T00:01:32;12.00;99.90
30069;DHT22;16894;49.456;10.644;2022-09-09T00:04:05;12.00;99.90
30069;DHT22;16894;49.456;10.644;2022-09-09T00:06:55;12.00;99.90
30069;DHT22;16894;49.456;10.644;2022-09-09T00:09:26;12.00;99.90
30069;DHT22;16894;49.456;10.644;2022-09-09T00:12:15;12.10;99.90
30069;DHT22;16894;49.456;10.644;2022-09-09T00:17:43;12.10;99.90
30069;DHT22;16894;49.456;10.644;2022-09-09T00:23:06;11.80;99.90
30069;DHT22;16894;49.456;10.644;2022-09-09T00:25:37;11.70;99.90
30069;DHT22;16894;49.456;10.644;2022-09-09T00:28:17;11.60;99.90
30069;DHT22;16894;49.456;10.644;2022-09-09T00:30:43;11.60;99.90
30069;DHT22;16894;49.456;10.644;2022-09-09T00:33:13;11.50;99.90
30069;DHT22;16894;49.456;10.644;2022-09-09T00:35:57;11.40;99.90
30069;DHT22;16894;49.456;10.644;2022-09-09T00:38:47;11.40;99.90
30069;DHT22;16894;49.456;10.644;2022-09-09T00:41:18;11.40;99.90
30069;DHT22;16894;49.456;10.644;2022-09-09T00:44:04;11.60;99.90
30069;DHT22;16894;49.456;10.644;2022-09-09T00:52:30;11.60;99.90
30069;DHT22;16894;49.456;10.644;2022-09-09T00:57:34;11.50;99.90
30069;DHT22;16894;49.456;10.644;2022-09-09T01:08:01;11.70;99.90
30069;DHT22;16894;49.456;10.644;2022-09-09T01:10:49;11.60;99.90
30069;DHT22;16894;49.456;10.644;2022-09-09T01:13:34;11.50;99.90
30069;DHT22;16894;49.456;10.644;2022-09-09T01:16:04;11.50;99.90
30069;DHT22;16894;49.456;10.644;2022-09-09T01:18:46;11.50;99.90
30069;DHT22;16894;49.456;10.644;2022-09-09T01:21:49;11.40;99.90
30069;DHT22;16894;49.456;10.644;2022-09-09T01:27:05;11.60;99.90
30069;DHT22;16894;49.456;10.644;2022-09-09T01:29:32;11.70;99.90
30069;DHT22;16894;49.456;10.644;2022-09-09T01:32:00;11.80;99.90
30069;DHT22;16894;49.456;10.644;2022-09-09T01:34:37;11.70;99.90
30069;DHT22;16894;49.456;10.644;2022-09-09T01:37:06;11.70;99.90
30069;DHT22;16894;49.456;10.644;2022-09-09T01:39:35;11.70;99.90
30069;DHT22;16894;49.456;10.644;2022-09-09T01:42:02;11.60;99.90
30069;DHT22;16894;49.456;10.644;2022-09-09T01:44:28;11.60;99.90
30069;DHT22;16894;49.456;10.644;2022-09-09T01:46:55;11.70;99.90
30069;DHT22;16894;49.456;10.644;2022-09-09T01:49:21;11.70;99.90
30069;DHT22;16894;49.456;10.644;2022-09-09T01:51:50;11.70;99.90
30069;DHT22;16894;49.456;10.644;2022-09-09T01:54:17;11.70;99.90
30069;DHT22;16894;49.456;10.644;2022-09-09T01:59:56;11.60;99.90
30069;DHT22;16894;49.456;10.644;2022-09-09T02:05:27;11.60;99.90
30069;DHT22;16894;49.456;10.644;2022-09-09T02:08:03;11.60;99.90
30069;DHT22;16894;49.456;10.644;2022-09-09T02:10:46;11.50;99.90
30069;DHT22;16894;49.456;10.644;2022-09-09T02:13:14;11.50;99.90
30069;DHT22;16894;49.456;10.644;2022-09-09T02:15:53;11.40;99.90
30069;DHT22;16894;49.456;10.644;2022-09-09T02:18:30;11.40;99.90
30069;DHT22;16894;49.456;10.644;2022-09-09T02:20:58;11.50;99.90
30069;DHT22;16894;49.456;10.644;2022-09-09T02:23:25;11.50;99.90
30069;DHT22;16894;49.456;10.644;2022-09-09T02:25:51;11.50;99.90
30069;DHT22;16894;49.456;10.644;2022-09-09T02:28:19;11.50;99.90
30069;DHT22;16894;49.456;10.644;2022-09-09T02:30:49;11.50;99.90
30069;DHT22;16894;49.456;10.644;2022-09-09T02:33:30;11.60;99.90
30069;DHT22;16894;49.456;10.644;2022-09-09T02:35:59;11.70;99.90
30069;DHT22;16894;49.456;10.644;2022-09-09T02:38:30;11.70;99.90
30069;DHT22;16894;49.456;10.644;2022-09-09T02:41:00;11.70;99.90
30069;DHT22;16894;49.456;10.644;2022-09-09T02:43:32;11.60;99.90
30069;DHT22;16894;49.456;10.644;2022-09-09T02:46:08;11.50;99.90
30069;DHT22;16894;49.456;10.644;2022-09-09T02:48:55;11.50;99.90
30069;DHT22;16894;49.456;10.644;2022-09-09T02:51:32;11.60;99.90
30069;DHT22;16894;49.456;10.644;2022-09-09T02:54:10;11.60;99.90
30069;DHT22;16894;49.456;10.644;2022-09-09T02:56:42;11.70;99.90
30069;DHT22;16894;49.456;10.644;2022-09-09T02:59:09;11.80;99.90
30069;DHT22;16894;49.456;10.644;2022-09-09T03:01:35;11.80;99.90
30069;DHT22;16894;49.456;10.644;2022-09-09T03:04:02;11.80;99.90
30069;DHT22;16894;49.456;10.644;2022-09-09T03:06:47;12.00;99.90
30069;DHT22;16894;49.456;10.644;2022-09-09T03:09:13;12.20;99.90
30069;DHT22;16894;49.456;10.644;2022-09-09T03:11:38;12.30;99.90
30069;DHT22;16894;49.456;10.644;2022-09-09T03:14:05;12.20;99.90
30069;DHT22;16894;49.456;10.644;2022-09-09T03:16:31;12.20;99.90
30069;DHT22;16894;49.456;10.644;2022-09-09T03:18:58;12.30;99.90
30069;DHT22;16894;49.456;10.644;2022-09-09T03:21:24;12.30;99.90
30069;DHT22;16894;49.456;10.644;2022-09-09T03:23:50;12.30;99.90
30069;DHT22;16894;49.456;10.644;2022-09-09T03:26:15;12.30;99.90
30069;DHT22;16894;49.456;10.644;2022-09-09T03:28:42;12.40;99.90
30069;DHT22;16894;49.456;10.644;2022-09-09T03:31:08;12.50;99.90
30069;DHT22;16894;49.456;10.644;2022-09-09T03:33:37;12.40;99.90
30069;DHT22;16894;49.456;10.644;2022-09-09T03:36:04;12.30;99.90
30069;DHT22;16894;49.456;10.644;2022-09-09T03:38:30;12.30;99.90
30069;DHT22;16894;49.456;10.644;2022-09-09T03:40:56;12.40;99.90
30069;DHT22;16894;49.456;10.644;2022-09-09T03:43:27;12.40;99.90
30069;DHT22;16894;49.456;10.644;2022-09-09T03:45:53;12.40;99.90
30069;DHT22;16894;49.456;10.644;2022-09-09T03:48:24;12.20;99.90
30069;DHT22;16894;49.456;10.644;2022-09-09T03:50:52;12.10;99.90
30069;DHT22;16894;49.456;10.644;2022-09-09T03:53:20;12.00;99.90
30069;DHT22;16894;49.456;10.644;2022-09-09T03:55:52;12.10;99.90
30069;DHT22;16894;49.456;10.644;2022-09-09T03:58:23;12.10;99.90
30069;DHT22;16894;49.456;10.644;2022-09-09T04:01:11;12.00;99.90
30069;DHT22;16894;49.456;10.644;2022-09-09T04:03:40;12.20;99.90
30069;DHT22;16894;49.456;10.644;2022-09-09T04:06:06;12.30;99.90
30069;DHT22;16894;49.456;10.644;2022-09-09T04:08:33;12.20;99.90
30069;DHT22;16894;49.456;10.644;2022-09-09T04:11:00;12.30;99.90
30069;DHT22;16894;49.456;10.644;2022-09-09T04:13:27;12.30;99.90
30069;DHT22;16894;49.456;10.644;2022-09-09T04:15:54;12.40;99.90
30069;DHT22;16894;49.456;10.644;2022-09-09T04:18:21;12.40;99.90
30069;DHT22;16894;49.456;10.644;2022-09-09T04:20:51;12.40;99.90
30069;DHT22;16894;49.456;10.644;2022-09-09T04:23:18;12.30;99.90
30069;DHT22;16894;49.456;10.644;2022-09-09T04:25:51;12.20;99.90
30069;DHT22;16894;49.456;10.644;2022-09-09T04:28:18;12.20;99.90
30069;DHT22;16894;49.456;10.644;2022-09-09T04:30:45;12.10;99.90
30069;DHT22;16894;49.456;10.644;2022-09-09T04:33:11;12.10;99.90
30069;DHT22;16894;49.456;10.644;2022-09-09T04:35:37;12.20;99.90
30069;DHT22;16894;49.456;10.644;2022-09-09T04:38:04;12.20;99.90
30069;DHT22;16894;49.456;10.644;2022-09-09T04:40:32;12.20;99.90
30069;DHT22;16894;49.456;10.644;2022-09-09T04:42:59;12.10;99.90
30069;DHT22;16894;49.456;10.644;2022-09-09T04:45:25;12.20;99.90
30069;DHT22;16894;49.456;10.644;2022-09-09T04:47:51;12.20;99.90
30069;DHT22;16894;49.456;10.644;2022-09-09T04:50:18;12.10;99.90
30069;DHT22;16894;49.456;10.644;2022-09-09T04:52:44;12.00;99.90
30069;DHT22;16894;49.456;10.644;2022-09-09T04:55:10;12.00;99.90
30069;DHT22;16894;49.456;10.644;2022-09-09T04:57:35;11.90;99.90
30069;DHT22;16894;49.456;10.644;2022-09-09T05:00:02;11.80;99.90
30069;DHT22;16894;49.456;10.644;2022-09-09T05:02:29;11.80;99.90
30069;DHT22;16894;49.456;10.644;2022-09-09T05:04:55;11.80;99.90
30069;DHT22;16894;49.456;10.644;2022-09-09T05:07:21;11.80;99.90
30069;DHT22;16894;49.456;10.644;2022-09-09T05:09:47;11.80;99.90
30069;DHT22;16894;49.456;10.644;2022-09-09T05:12:15;11.80;99.90
30069;DHT22;16894;49.456;10.644;2022-09-09T05:14:42;11.90;99.90
30069;DHT22;16894;49.456;10.644;2022-09-09T05:17:08;12.10;99.90
30069;DHT22;16894;49.456;10.644;2022-09-09T05:19:34;12.20;99.90
30069;DHT22;16894;49.456;10.644;2022-09-09T05:21:59;12.20;99.90
30069;DHT22;16894;49.456;10.644;2022-09-09T05:24:26;12.30;99.90
30069;DHT22;16894;49.456;10.644;2022-09-09T05:26:52;12.30;99.90
30069;DHT22;16894;49.456;10.644;2022-09-09T05:29:17;12.30;99.90
30069;DHT22;16894;49.456;10.644;2022-09-09T05:31:47;12.40;99.90
30069;DHT22;16894;49.456;10.644;2022-09-09T05:34:13;12.30;99.90
30069;DHT22;16894;49.456;10.644;2022-09-09T05:36:38;12.30;99.90
30069;DHT22;16894;49.456;10.644;2022-09-09T05:39:04;12.30;99.90
30069;DHT22;16894;49.456;10.644;2022-09-09T05:41:30;12.40;99.90
30069;DHT22;16894;49.456;10.644;2022-09-09T05:43:56;12.40;99.90
30069;DHT22;16894;49.456;10.644;2022-09-09T05:46:24;12.50;99.90
30069;DHT22;16894;49.456;10.644;2022-09-09T05:48:51;12.60;99.90
30069;DHT22;16894;49.456;10.644;2022-09-09T05:51:19;12.60;99.90
30069;DHT22;16894;49.456;10.644;2022-09-09T05:53:47;12.70;99.90
30069;DHT22;16894;49.456;10.644;2022-09-09T05:56:14;12.80;99.90
30069;DHT22;16894;49.456;10.644;2022-09-09T05:58:40;12.90;99.90
30069;DHT22;16894;49.456;10.644;2022-09-09T06:01:14;13.00;99.90
30069;DHT22;16894;49.456;10.644;2022-09-09T06:03:41;13.10;99.90
30069;DHT22;16894;49.456;10.644;2022-09-09T06:06:09;13.20;99.90
30069;DHT22;16894;49.456;10.644;2022-09-09T06:08:37;13.20;99.90
30069;DHT22;16894;49.456;10.644;2022-09-09T06:11:15;13.30;99.90
30069;DHT22;16894;49.456;10.644;2022-09-09T06:13:41;13.30;99.90
30069;DHT22;16894;49.456;10.644;2022-09-09T06:16:11;13.20;99.90
30069;DHT22;16894;49.456;10.644;2022-09-09T06:18:41;13.10;99.90
30069;DHT22;16894;49.456;10.644;2022-09-09T06:21:11;13.20;99.90
30069;DHT22;16894;49.456;10.644;2022-09-09T06:23:39;13.20;99.90
30069;DHT22;16894;49.456;10.644;2022-09-09T06:26:09;13.30;99.90
30069;DHT22;16894;49.456;10.644;2022-09-09T06:28:35;13.50;99.90
30069;DHT22;16894;49.456;10.644;2022-09-09T06:31:04;13.50;99.90
30069;DHT22;16894;49.456;10.644;2022-09-09T06:33:35;13.60;99.90
30069;DHT22;16894;49.456;10.644;2022-09-09T06:36:02;13.70;99.90
30069;DHT22;16894;49.456;10.644;2022-09-09T06:38:32;13.90;99.90
30069;DHT22;16894;49.456;10.644;2022-09-09T06:40:59;14.10;99.90
30069;DHT22;16894;49.456;10.644;2022-09-09T06:43:25;14.40;99.90
30069;DHT22;16894;49.456;10.644;2022-09-09T06:48:20;14.80;99.90
30069;DHT22;16894;49.456;10.644;2022-09-09T06:50:46;14.80;99.90
30069;DHT22;16894;49.456;10.644;2022-09-09T06:53:12;14.90;99.90
30069;DHT22;16894;49.456;10.644;2022-09-09T06:55:38;15.00;99.90
30069;DHT22;16894;49.456;10.644;2022-09-09T06:58:09;15.10;99.90
30069;DHT22;16894;49.456;10.644;2022-09-09T07:00:34;15.30;99.90
30069;DHT22;16894;49.456;10.644;2022-09-09T07:03:03;15.50;99.90
30069;DHT22;16894;49.456;10.644;2022-09-09T07:05:28;15.80;99.90
30069;DHT22;16894;49.456;10.644;2022-09-09T07:07:54;16.00;99.90
30069;DHT22;16894;49.456;10.644;2022-09-09T07:10:20;16.20;99.90
30069;DHT22;16894;49.456;10.644;2022-09-09T07:12:50;16.40;99.90
30069;DHT22;16894;49.456;10.644;2022-09-09T07:15:17;16.50;99.90
30069;DHT22;16894;49.456;10.644;2022-09-09T07:17:44;16.70;99.90
30069;DHT22;16894;49.456;10.644;2022-09-09T07:20:10;16.90;99.90
30069;DHT22;16894;49.456;10.644;2022-09-09T07:22:35;17.30;99.90
30069;DHT22;16894;49.456;10.644;2022-09-09T07:25:01;17.70;99.90
30069;DHT22;16894;49.456;10.644;2022-09-09T07:27:27;17.90;99.90
30069;DHT22;16894;49.456;10.644;2022-09-09T07:29:53;18.10;99.90
30069;DHT22;16894;49.456;10.644;2022-09-09T07:32:19;18.30;99.90
30069;DHT22;16894;49.456;10.644;2022-09-09T07:34:45;18.50;99.90
30069;DHT22;16894;49.456;10.644;2022-09-09T07:37:12;18.60;99.90
30069;DHT22;16894;49.456;10.644;2022-09-09T07:39:39;18.50;99.90
30069;DHT22;16894;49.456;10.644;2022-09-09T07:42:05;18.40;99.90
30069;DHT22;16894;49.456;10.644;2022-09-09T07:44:31;18.30;99.90
30069;DHT22;16894;49.456;10.644;2022-09-09T07:47:01;18.30;99.90
30069;DHT22;16894;49.456;10.644;2022-09-09T07:49:26;18.40;99.90
30069;DHT22;16894;49.456;10.644;2022-09-09T07:51:52;18.40;99.90
30069;DHT22;16894;49.456;10.644;2022-09-09T07:54:19;18.50;99.90
30069;DHT22;16894;49.456;10.644;2022-09-09T07:56:49;18.40;99.90
30069;DHT22;16894;49.456;10.644;2022-09-09T07:59:16;18.50;99.90
30069;DHT22;16894;49.456;10.644;2022-09-09T08:01:51;18.60;99.90
30069;DHT22;16894;49.456;10.644;2022-09-09T08:04:20;18.60;99.90
30069;DHT22;16894;49.456;10.644;2022-09-09T08:06:52;18.80;99.90
30069;DHT22;16894;49.456;10.644;2022-09-09T08:09:19;19.00;99.90
30069;DHT22;16894;49.456;10.644;2022-09-09T08:11:45;19.10;99.90
30069;DHT22;16894;49.456;10.644;2022-09-09T08:14:11;19.20;99.90
30069;DHT22;16894;49.456;10.644;2022-09-09T08:16:38;19.30;99.90
30069;DHT22;16894;49.456;10.644;2022-09-09T08:19:04;19.50;99.90
30069;DHT22;16894;49.456;10.644;2022-09-09T08:21:32;19.90;99.90
30069;DHT22;16894;49.456;10.644;2022-09-09T08:24:01;20.40;99.90
30069;DHT22;16894;49.456;10.644;2022-09-09T08:26:31;20.60;99.90
30069;DHT22;16894;49.456;10.644;2022-09-09T08:28:58;20.60;99.90
30069;DHT22;16894;49.456;10.644;2022-09-09T08:31:29;20.80;99.90
30069;DHT22;16894;49.456;10.644;2022-09-09T08:33:56;21.10;99.50
30069;DHT22;16894;49.456;10.644;2022-09-09T08:36:27;21.30;99.10
30069;DHT22;16894;49.456;10.644;2022-09-09T08:38:55;21.80;98.10
30069;DHT22;16894;49.456;10.644;2022-09-09T08:44:21;22.10;97.70
30069;DHT22;16894;49.456;10.644;2022-09-09T08:53:01;23.10;95.50
30069;DHT22;16894;49.456;10.644;2022-09-09T08:57:53;22.90;93.90
30069;DHT22;16894;49.456;10.644;2022-09-09T09:00:20;22.60;94.10
30069;DHT22;16894;49.456;10.644;2022-09-09T09:08:36;23.00;93.10
30069;DHT22;16894;49.456;10.644;2022-09-09T09:11:04;22.80;92.10
30069;DHT22;16894;49.456;10.644;2022-09-09T09:16:40;22.90;92.70
30069;DHT22;16894;49.456;10.644;2022-09-09T09:19:14;22.90;92.70
30069;DHT22;16894;49.456;10.644;2022-09-09T09:21:43;23.00;92.40
30069;DHT22;16894;49.456;10.644;2022-09-09T09:24:23;23.00;92.50
30069;DHT22;16894;49.456;10.644;2022-09-09T09:26:50;23.30;91.30
30069;DHT22;16894;49.456;10.644;2022-09-09T09:29:18;23.40;91.30
30069;DHT22;16894;49.456;10.644;2022-09-09T09:31:55;23.00;91.70
30069;DHT22;16894;49.456;10.644;2022-09-09T09:34:22;22.50;92.50
30069;DHT22;16894;49.456;10.644;2022-09-09T09:37:00;22.20;92.80
30069;DHT22;16894;49.456;10.644;2022-09-09T09:39:31;22.20;93.20
30069;DHT22;16894;49.456;10.644;2022-09-09T09:42:21;22.30;92.50
30069;DHT22;16894;49.456;10.644;2022-09-09T09:44:48;22.40;92.60
30069;DHT22;16894;49.456;10.644;2022-09-09T09:47:21;22.50;91.90
30069;DHT22;16894;49.456;10.644;2022-09-09T09:49:58;22.50;91.70
30069;DHT22;16894;49.456;10.644;2022-09-09T09:52:31;22.50;91.50
30069;DHT22;16894;49.456;10.644;2022-09-09T09:54:58;23.00;91.20
30069;DHT22;16894;49.456;10.644;2022-09-09T09:57:29;23.40;90.70
30069;DHT22;16894;49.456;10.644;2022-09-09T10:00:13;24.30;90.00
30069;DHT22;16894;49.456;10.644;2022-09-09T10:02:41;24.80;87.80
30069;DHT22;16894;49.456;10.644;2022-09-09T10:05:16;24.80;86.90
30069;DHT22;16894;49.456;10.644;2022-09-09T10:07:42;24.40;87.30
30069;DHT22;16894;49.456;10.644;2022-09-09T10:10:48;23.80;88.40
30069;DHT22;16894;49.456;10.644;2022-09-09T10:17:09;23.90;89.40
30069;DHT22;16894;49.456;10.644;2022-09-09T10:19:16;24.40;86.00
30069;DHT22;16894;49.456;10.644;2022-09-09T10:24:52;24.70;84.40
30069;DHT22;16894;49.456;10.644;2022-09-09T10:38:27;26.50;75.90
30069;DHT22;16894;49.456;10.644;2022-09-09T10:43:50;26.40;75.60
30069;DHT22;16894;49.456;10.644;2022-09-09T10:51:25;26.70;72.20
30069;DHT22;16894;49.456;10.644;2022-09-09T10:54:05;26.70;71.80
30069;DHT22;16894;49.456;10.644;2022-09-09T10:56:36;26.50;71.90
30069;DHT22;16894;49.456;10.644;2022-09-09T10:59:18;26.60;73.60
30069;DHT22;16894;49.456;10.644;2022-09-09T11:01:53;27.40;69.30
30069;DHT22;16894;49.456;10.644;2022-09-09T11:04:25;26.60;66.50
30069;DHT22;16894;49.456;10.644;2022-09-09T11:06:55;25.70;71.10
30069;DHT22;16894;49.456;10.644;2022-09-09T11:09:28;25.90;71.30
30069;DHT22;16894;49.456;10.644;2022-09-09T11:11:58;26.20;67.80
30069;DHT22;16894;49.456;10.644;2022-09-09T11:17:42;27.70;63.90
30069;DHT22;16894;49.456;10.644;2022-09-09T11:20:13;26.60;64.70
30069;DHT22;16894;49.456;10.644;2022-09-09T11:22:55;25.80;67.00
30069;DHT22;16894;49.456;10.644;2022-09-09T11:25:47;25.50;69.30
30069;DHT22;16894;49.456;10.644;2022-09-09T11:42:12;29.30;59.10
30069;DHT22;16894;49.456;10.644;2022-09-09T11:44:41;30.30;60.60
30069;DHT22;16894;49.456;10.644;2022-09-09T11:47:29;30.80;57.30
30069;DHT22;16894;49.456;10.644;2022-09-09T11:50:07;30.60;57.30
30069;DHT22;16894;49.456;10.644;2022-09-09T11:52:45;30.90;55.80
30069;DHT22;16894;49.456;10.644;2022-09-09T11:55:34;30.90;55.60
30069;DHT22;16894;49.456;10.644;2022-09-09T12:00:42;31.00;52.30
30069;DHT22;16894;49.456;10.644;2022-09-09T12:03:49;29.50;53.90
30069;DHT22;16894;49.456;10.644;2022-09-09T12:06:31;28.60;55.30
30069;DHT22;16894;49.456;10.644;2022-09-09T12:11:50;26.60;59.40
30069;DHT22;16894;49.456;10.644;2022-09-09T12:14:36;25.90;61.50
30069;DHT22;16894;49.456;10.644;2022-09-09T12:19:40;22.40;87.00
30069;DHT22;16894;49.456;10.644;2022-09-09T12:24:43;17.90;99.90
30069;DHT22;16894;49.456;10.644;2022-09-09T12:27:27;16.80;99.90
30069;DHT22;16894;49.456;10.644;2022-09-09T12:32:25;16.10;99.90
30069;DHT22;16894;49.456;10.644;2022-09-09T12:37:40;16.30;99.90
30069;DHT22;16894;49.456;10.644;2022-09-09T12:40:26;16.60;99.90
30069;DHT22;16894;49.456;10.644;2022-09-09T12:42:52;17.40;99.90
30069;DHT22;16894;49.456;10.644;2022-09-09T12:45:20;18.70;99.90
30069;DHT22;16894;49.456;10.644;2022-09-09T12:50:26;20.70;99.90
30069;DHT22;16894;49.456;10.644;2022-09-09T12:52:59;21.40;99.90
30069;DHT22;16894;49.456;10.644;2022-09-09T12:55:31;21.90;99.90
30069;DHT22;16894;49.456;10.644;2022-09-09T12:57:59;21.20;99.90
30069;DHT22;16894;49.456;10.644;2022-09-09T13:00:26;20.90;99.90
30069;DHT22;16894;49.456;10.644;2022-09-09T13:02:58;21.10;99.90
30069;DHT22;16894;49.456;10.644;2022-09-09T13:05:34;21.80;99.90
30069;DHT22;16894;49.456;10.644;2022-09-09T13:08:05;22.30;99.90
30069;DHT22;16894;49.456;10.644;2022-09-09T13:10:34;22.50;99.90
30069;DHT22;16894;49.456;10.644;2022-09-09T13:13:01;21.70;99.90
30069;DHT22;16894;49.456;10.644;2022-09-09T13:15:28;21.40;99.90
30069;DHT22;16894;49.456;10.644;2022-09-09T13:17:59;21.50;99.90
30069;DHT22;16894;49.456;10.644;2022-09-09T13:20:27;21.00;99.90
30069;DHT22;16894;49.456;10.644;2022-09-09T13:22:56;20.50;99.90
30069;DHT22;16894;49.456;10.644;2022-09-09T13:25:29;20.40;99.90
30069;DHT22;16894;49.456;10.644;2022-09-09T13:28:03;20.40;99.90
30069;DHT22;16894;49.456;10.644;2022-09-09T13:30:34;20.10;99.90
30069;DHT22;16894;49.456;10.644;2022-09-09T13:35:53;19.60;99.90
30069;DHT22;16894;49.456;10.644;2022-09-09T13:38:20;19.40;99.90
30069;DHT22;16894;49.456;10.644;2022-09-09T13:41:08;19.40;99.90
30069;DHT22;16894;49.456;10.644;2022-09-09T13:43:45;19.30;99.90
30069;DHT22;16894;49.456;10.644;2022-09-09T13:46:38;19.40;99.90
30069;DHT22;16894;49.456;10.644;2022-09-09T13:51:42;21.60;99.90
30069;DHT22;16894;49.456;10.644;2022-09-09T13:54:11;23.70;99.90
30069;DHT22;16894;49.456;10.644;2022-09-09T13:56:38;24.80;99.90
30069;DHT22;16894;49.456;10.644;2022-09-09T13:59:11;26.60;99.90
30069;DHT22;16894;49.456;10.644;2022-09-09T14:01:36;27.00;95.30
30069;DHT22;16894;49.456;10.644;2022-09-09T14:04:03;28.30;94.40
30069;DHT22;16894;49.456;10.644;2022-09-09T14:06:29;28.10;92.90
30069;DHT22;16894;49.456;10.644;2022-09-09T14:08:55;28.60;87.30
30069;DHT22;16894;49.456;10.644;2022-09-09T14:11:21;28.50;89.10
30069;DHT22;16894;49.456;10.644;2022-09-09T14:13:47;27.80;86.00
30069;DHT22;16894;49.456;10.644;2022-09-09T14:16:18;26.40;90.30
30069;DHT22;16894;49.456;10.644;2022-09-09T14:18:45;25.30;86.10
30069;DHT22;16894;49.456;10.644;2022-09-09T14:21:11;24.10;88.90
30069;DHT22;16894;49.456;10.644;2022-09-09T14:23:37;23.30;90.80
30069;DHT22;16894;49.456;10.644;2022-09-09T14:26:07;22.60;91.70
30069;DHT22;16894;49.456;10.644;2022-09-09T14:28:33;22.10;91.10
30069;DHT22;16894;49.456;10.644;2022-09-09T14:31:03;21.50;93.00
30069;DHT22;16894;49.456;10.644;2022-09-09T14:33:29;21.20;92.80
30069;DHT22;16894;49.456;10.644;2022-09-09T14:35:59;21.10;95.00
30069;DHT22;16894;49.456;10.644;2022-09-09T14:38:28;20.90;94.30
30069;DHT22;16894;49.456;10.644;2022-09-09T14:40:54;20.80;94.10
30069;DHT22;16894;49.456;10.644;2022-09-09T14:43:20;20.80;95.70
30069;DHT22;16894;49.456;10.644;2022-09-09T14:45:46;20.80;93.40
30069;DHT22;16894;49.456;10.644;2022-09-09T14:48:14;20.60;95.50
30069;DHT22;16894;49.456;10.644;2022-09-09T14:50:40;20.40;94.70
30069;DHT22;16894;49.456;10.644;2022-09-09T14:53:06;20.40;94.30
30069;DHT22;16894;49.456;10.644;2022-09-09T14:55:33;20.30;95.30
30069;DHT22;16894;49.456;10.644;2022-09-09T14:57:58;20.10;94.40
30069;DHT22;16894;49.456;10.644;2022-09-09T15:00:24;19.90;92.20
30069;DHT22;16894;49.456;10.644;2022-09-09T15:02:53;19.70;94.10
30069;DHT22;16894;49.456;10.644;2022-09-09T15:05:18;19.70;91.90
30069;DHT22;16894;49.456;10.644;2022-09-09T15:07:44;19.70;92.30
30069;DHT22;16894;49.456;10.644;2022-09-09T15:10:10;19.90;93.40
30069;DHT22;16894;49.456;10.644;2022-09-09T15:12:36;20.00;90.40
30069;DHT22;16894;49.456;10.644;2022-09-09T15:15:04;20.20;91.90
30069;DHT22;16894;49.456;10.644;2022-09-09T15:17:30;20.30;89.40
30069;DHT22;16894;49.456;10.644;2022-09-09T15:19:56;20.60;91.20
30069;DHT22;16894;49.456;10.644;2022-09-09T15:22:21;20.90;90.50
30069;DHT22;16894;49.456;10.644;2022-09-09T15:24:47;21.00;92.80
30069;DHT22;16894;49.456;10.644;2022-09-09T15:27:13;20.80;90.80
30069;DHT22;16894;49.456;10.644;2022-09-09T15:29:40;20.70;92.20
30069;DHT22;16894;49.456;10.644;2022-09-09T15:32:07;20.70;92.70
30069;DHT22;16894;49.456;10.644;2022-09-09T15:34:32;20.60;93.00
30069;DHT22;16894;49.456;10.644;2022-09-09T15:36:59;20.70;92.20
30069;DHT22;16894;49.456;10.644;2022-09-09T15:39:25;20.80;93.70
30069;DHT22;16894;49.456;10.644;2022-09-09T15:41:51;20.90;91.10
30069;DHT22;16894;49.456;10.644;2022-09-09T15:44:17;21.00;89.90
30069;DHT22;16894;49.456;10.644;2022-09-09T15:46:51;21.10;92.30
30069;DHT22;16894;49.456;10.644;2022-09-09T15:49:23;21.20;91.50
30069;DHT22;16894;49.456;10.644;2022-09-09T15:51:56;21.20;90.10
30069;DHT22;16894;49.456;10.644;2022-09-09T15:54:24;21.10;90.80
30069;DHT22;16894;49.456;10.644;2022-09-09T15:56:56;21.10;90.30
30069;DHT22;16894;49.456;10.644;2022-09-09T15:59:22;21.10;90.70
30069;DHT22;16894;49.456;10.644;2022-09-09T16:01:48;21.00;90.70
30069;DHT22;16894;49.456;10.644;2022-09-09T16:04:17;20.90;91.00
30069;DHT22;16894;49.456;10.644;2022-09-09T16:06:50;20.70;91.60
30069;DHT22;16894;49.456;10.644;2022-09-09T16:09:16;20.60;91.10
30069;DHT22;16894;49.456;10.644;2022-09-09T16:11:45;20.40;92.20
30069;DHT22;16894;49.456;10.644;2022-09-09T16:14:13;20.30;91.10
30069;DHT22;16894;49.456;10.644;2022-09-09T16:16:38;20.10;91.00
30069;DHT22;16894;49.456;10.644;2022-09-09T16:19:06;20.00;91.40
30069;DHT22;16894;49.456;10.644;2022-09-09T16:21:41;19.90;91.20
30069;DHT22;16894;49.456;10.644;2022-09-09T16:24:09;19.80;91.60
30069;DHT22;16894;49.456;10.644;2022-09-09T16:26:37;19.60;92.60
30069;DHT22;16894;49.456;10.644;2022-09-09T16:29:03;19.40;92.50
30069;DHT22;16894;49.456;10.644;2022-09-09T16:31:30;19.30;93.60
30069;DHT22;16894;49.456;10.644;2022-09-09T16:33:57;19.10;92.60
30069;DHT22;16894;49.456;10.644;2022-09-09T16:36:28;19.00;93.70
30069;DHT22;16894;49.456;10.644;2022-09-09T16:38:58;18.90;93.10
30069;DHT22;16894;49.456;10.644;2022-09-09T16:41:26;18.80;93.20
30069;DHT22;16894;49.456;10.644;2022-09-09T16:46:20;18.70;93.40
30069;DHT22;16894;49.456;10.644;2022-09-09T16:48:47;18.80;95.60
30069;DHT22;16894;49.456;10.644;2022-09-09T16:53:42;18.80;93.60
30069;DHT22;16894;49.456;10.644;2022-09-09T16:56:09;18.80;93.60
30069;DHT22;16894;49.456;10.644;2022-09-09T16:58:35;18.70;94.00
30069;DHT22;16894;49.456;10.644;2022-09-09T17:01:03;18.60;93.80
30069;DHT22;16894;49.456;10.644;2022-09-09T17:03:29;18.50;94.40
30069;DHT22;16894;49.456;10.644;2022-09-09T17:05:55;18.50;94.90
30069;DHT22;16894;49.456;10.644;2022-09-09T17:08:26;18.30;94.70
30069;DHT22;16894;49.456;10.644;2022-09-09T17:10:51;18.20;95.00
30069;DHT22;16894;49.456;10.644;2022-09-09T17:13:17;18.10;94.90
30069;DHT22;16894;49.456;10.644;2022-09-09T17:15:45;18.00;95.50
30069;DHT22;16894;49.456;10.644;2022-09-09T17:18:12;17.90;95.90
30069;DHT22;16894;49.456;10.644;2022-09-09T17:20:39;17.80;97.00
30069;DHT22;16894;49.456;10.644;2022-09-09T17:23:06;17.70;98.20
30069;DHT22;16894;49.456;10.644;2022-09-09T17:25:31;17.50;97.60
30069;DHT22;16894;49.456;10.644;2022-09-09T17:27:58;17.50;97.20
30069;DHT22;16894;49.456;10.644;2022-09-09T17:30:25;17.50;98.10
30069;DHT22;16894;49.456;10.644;2022-09-09T17:32:51;17.30;99.60
30069;DHT22;16894;49.456;10.644;2022-09-09T17:35:16;17.20;99.60
30069;DHT22;16894;49.456;10.644;2022-09-09T17:37:43;17.10;99.90